sensor_id;sensor_type;location;lat;lon;timestamp;temperature;humidity
15239;DHT22;7722;53.274;9.500;2022-11-15T00:02:06;7.10;99.90
15239;DHT22;7722;53.274;9.500;2022-11-15T00:04:34;7.20;99.90
15239;DHT22;7722;53.274;9.500;2022-11-15T00:07:01;7.20;99.90
15239;DHT22;7722;53.274;9.500;2022-11-15T00:09:28;7.10;99.90
15239;DHT22;7722;53.274;9.500;2022-11-15T00:11:55;7.00;99.90
15239;DHT22;7722;53.274;9.500;2022-11-15T00:14:22;7.00;99.90
15239;DHT22;7722;53.274;9.500;2022-11-15T00:16:49;7.00;99.90
15239;DHT22;7722;53.274;9.500;2022-11-15T00:19:16;7.00;99.90
15239;DHT22;7722;53.274;9.500;2022-11-15T00:21:44;7.00;99.90
15239;DHT22;7722;53.274;9.500;2022-11-15T00:24:11;6.90;99.90
15239;DHT22;7722;53.274;9.500;2022-11-15T00:26:38;6.80;99.90
15239;DHT22;7722;53.274;9.500;2022-11-15T00:29:06;6.80;99.90
15239;DHT22;7722;53.274;9.500;2022-11-15T00:31:33;6.80;99.90
15239;DHT22;7722;53.274;9.500;2022-11-15T00:34:00;6.70;99.90
15239;DHT22;7722;53.274;9.500;2022-11-15T00:36:27;6.60;99.90
15239;DHT22;7722;53.274;9.500;2022-11-15T00:38:55;6.50;99.90
15239;DHT22;7722;53.274;9.500;2022-11-15T00:41:22;6.40;99.90
15239;DHT22;7722;53.274;9.500;2022-11-15T00:43:49;6.40;99.90
15239;DHT22;7722;53.274;9.500;2022-11-15T00:46:16;6.50;99.90
15239;DHT22;7722;53.274;9.500;2022-11-15T00:48:43;6.60;99.90
15239;DHT22;7722;53.274;9.500;2022-11-15T00:51:10;6.60;99.90
15239;DHT22;7722;53.274;9.500;2022-11-15T00:53:37;6.50;99.90
15239;DHT22;7722;53.274;9.500;2022-11-15T00:56:06;6.40;99.90
15239;DHT22;7722;53.274;9.500;2022-11-15T00:58:33;6.40;99.90
15239;DHT22;7722;53.274;9.500;2022-11-15T01:01:08;6.40;99.90
15239;DHT22;7722;53.274;9.500;2022-11-15T01:03:36;6.40;99.90
15239;DHT22;7722;53.274;9.500;2022-11-15T01:06:04;6.30;99.90
15239;DHT22;7722;53.274;9.500;2022-11-15T01:08:31;6.30;99.90
15239;DHT22;7722;53.274;9.500;2022-11-15T01:11:01;6.20;99.90
15239;DHT22;7722;53.274;9.500;2022-11-15T01:13:31;6.10;99.90
15239;DHT22;7722;53.274;9.500;2022-11-15T01:15:59;6.10;99.90
15239;DHT22;7722;53.274;9.500;2022-11-15T01:18:26;6.10;99.90
15239;DHT22;7722;53.274;9.500;2022-11-15T01:20:53;6.00;99.90
15239;DHT22;7722;53.274;9.500;2022-11-15T01:23:20;5.90;99.90
15239;DHT22;7722;53.274;9.500;2022-11-15T01:25:47;5.80;99.90
15239;DHT22;7722;53.274;9.500;2022-11-15T01:28:14;5.70;99.90
15239;DHT22;7722;53.274;9.500;2022-11-15T01:30:42;5.60;99.90
15239;DHT22;7722;53.274;9.500;2022-11-15T01:33:09;5.40;99.90
15239;DHT22;7722;53.274;9.500;2022-11-15T01:35:38;5.30;99.90
15239;DHT22;7722;53.274;9.500;2022-11-15T01:38:06;5.20;99.90
15239;DHT22;7722;53.274;9.500;2022-11-15T01:40:33;5.20;99.90
15239;DHT22;7722;53.274;9.500;2022-11-15T01:43:19;5.20;99.90
15239;DHT22;7722;53.274;9.500;2022-11-15T01:45:51;5.10;99.90
15239;DHT22;7722;53.274;9.500;2022-11-15T01:48:20;5.00;99.90
15239;DHT22;7722;53.274;9.500;2022-11-15T01:50:48;5.10;99.90
15239;DHT22;7722;53.274;9.500;2022-11-15T01:53:17;5.10;99.90
15239;DHT22;7722;53.274;9.500;2022-11-15T01:55:46;5.10;99.90
15239;DHT22;7722;53.274;9.500;2022-11-15T01:58:13;5.10;99.90
15239;DHT22;7722;53.274;9.500;2022-11-15T02:00:40;5.00;99.90
15239;DHT22;7722;53.274;9.500;2022-11-15T02:03:09;5.00;99.90
15239;DHT22;7722;53.274;9.500;2022-11-15T02:05:36;5.00;99.90
15239;DHT22;7722;53.274;9.500;2022-11-15T02:08:04;5.10;99.90
15239;DHT22;7722;53.274;9.500;2022-11-15T02:10:32;5.10;99.90
15239;DHT22;7722;53.274;9.500;2022-11-15T02:13:00;5.00;99.90
15239;DHT22;7722;53.274;9.500;2022-11-15T02:15:36;5.10;99.90
15239;DHT22;7722;53.274;9.500;2022-11-15T02:18:15;5.20;99.90
15239;DHT22;7722;53.274;9.500;2022-11-15T02:20:53;5.20;99.90
15239;DHT22;7722;53.274;9.500;2022-11-15T02:27:04;5.30;99.90
15239;DHT22;7722;53.274;9.500;2022-11-15T02:29:50;5.30;99.90
15239;DHT22;7722;53.274;9.500;2022-11-15T02:32:23;5.40;99.90
15239;DHT22;7722;53.274;9.500;2022-11-15T02:34:57;5.40;99.90
15239;DHT22;7722;53.274;9.500;2022-11-15T02:37:42;5.50;99.90
15239;DHT22;7722;53.274;9.500;2022-11-15T02:40:19;5.60;99.90
15239;DHT22;7722;53.274;9.500;2022-11-15T02:42:53;5.70;99.90
15239;DHT22;7722;53.274;9.500;2022-11-15T02:45:43;5.90;99.90
15239;DHT22;7722;53.274;9.500;2022-11-15T02:48:13;5.90;99.90
15239;DHT22;7722;53.274;9.500;2022-11-15T02:50:42;6.00;99.90
15239;DHT22;7722;53.274;9.500;2022-11-15T02:53:10;6.00;99.90
15239;DHT22;7722;53.274;9.500;2022-11-15T02:55:38;6.10;99.90
15239;DHT22;7722;53.274;9.500;2022-11-15T02:58:23;6.10;99.90
15239;DHT22;7722;53.274;9.500;2022-11-15T03:00:58;6.20;99.90
15239;DHT22;7722;53.274;9.500;2022-11-15T03:03:40;6.20;99.90
15239;DHT22;7722;53.274;9.500;2022-11-15T03:06:20;6.40;99.90
15239;DHT22;7722;53.274;9.500;2022-11-15T03:08:58;6.40;99.90
15239;DHT22;7722;53.274;9.500;2022-11-15T03:11:30;6.40;99.90
15239;DHT22;7722;53.274;9.500;2022-11-15T03:14:05;6.50;99.90
15239;DHT22;7722;53.274;9.500;2022-11-15T03:16:37;6.50;99.90
15239;DHT22;7722;53.274;9.500;2022-11-15T03:19:09;6.60;99.90
15239;DHT22;7722;53.274;9.500;2022-11-15T03:21:40;6.70;99.90
15239;DHT22;7722;53.274;9.500;2022-11-15T03:24:08;6.60;99.90
15239;DHT22;7722;53.274;9.500;2022-11-15T03:26:37;6.70;99.90
15239;DHT22;7722;53.274;9.500;2022-11-15T03:29:07;6.70;99.90
15239;DHT22;7722;53.274;9.500;2022-11-15T03:31:39;6.70;99.90
15239;DHT22;7722;53.274;9.500;2022-11-15T03:34:20;6.70;99.90
15239;DHT22;7722;53.274;9.500;2022-11-15T03:36:49;6.80;99.90
15239;DHT22;7722;53.274;9.500;2022-11-15T03:39:18;6.80;99.90
15239;DHT22;7722;53.274;9.500;2022-11-15T03:41:49;6.80;99.90
15239;DHT22;7722;53.274;9.500;2022-11-15T03:44:28;6.80;99.90
15239;DHT22;7722;53.274;9.500;2022-11-15T03:47:03;6.80;99.90
15239;DHT22;7722;53.274;9.500;2022-11-15T03:49:36;6.80;99.90
15239;DHT22;7722;53.274;9.500;2022-11-15T03:52:04;6.80;99.90
15239;DHT22;7722;53.274;9.500;2022-11-15T03:54:31;6.90;99.90
15239;DHT22;7722;53.274;9.500;2022-11-15T03:56:58;6.90;99.90
15239;DHT22;7722;53.274;9.500;2022-11-15T03:59:25;6.90;99.90
15239;DHT22;7722;53.274;9.500;2022-11-15T04:01:52;7.00;99.90
15239;DHT22;7722;53.274;9.500;2022-11-15T04:04:19;7.00;99.90
15239;DHT22;7722;53.274;9.500;2022-11-15T04:06:48;7.00;99.90
15239;DHT22;7722;53.274;9.500;2022-11-15T04:09:15;7.10;99.90
15239;DHT22;7722;53.274;9.500;2022-11-15T04:11:42;7.10;99.90
15239;DHT22;7722;53.274;9.500;2022-11-15T04:14:09;7.10;99.90
15239;DHT22;7722;53.274;9.500;2022-11-15T04:16:36;7.10;99.90
15239;DHT22;7722;53.274;9.500;2022-11-15T04:19:03;7.20;99.90
15239;DHT22;7722;53.274;9.500;2022-11-15T04:21:48;7.20;99.90
15239;DHT22;7722;53.274;9.500;2022-11-15T04:24:33;7.30;99.90
15239;DHT22;7722;53.274;9.500;2022-11-15T04:27:00;7.30;99.90
15239;DHT22;7722;53.274;9.500;2022-11-15T04:29:27;7.30;99.90
15239;DHT22;7722;53.274;9.500;2022-11-15T04:32:04;7.40;99.90
15239;DHT22;7722;53.274;9.500;2022-11-15T04:34:31;7.40;99.90
15239;DHT22;7722;53.274;9.500;2022-11-15T04:37:00;7.50;99.90
15239;DHT22;7722;53.274;9.500;2022-11-15T04:39:39;7.60;99.90
15239;DHT22;7722;53.274;9.500;2022-11-15T04:42:06;7.60;99.90
15239;DHT22;7722;53.274;9.500;2022-11-15T04:44:33;7.60;99.90
15239;DHT22;7722;53.274;9.500;2022-11-15T04:47:00;7.80;99.90
15239;DHT22;7722;53.274;9.500;2022-11-15T04:49:27;7.80;99.90
15239;DHT22;7722;53.274;9.500;2022-11-15T04:51:54;7.90;99.90
15239;DHT22;7722;53.274;9.500;2022-11-15T04:54:23;7.90;99.90
15239;DHT22;7722;53.274;9.500;2022-11-15T04:56:50;7.90;99.90
15239;DHT22;7722;53.274;9.500;2022-11-15T04:59:17;8.00;99.90
15239;DHT22;7722;53.274;9.500;2022-11-15T05:01:44;8.10;99.90
15239;DHT22;7722;53.274;9.500;2022-11-15T05:04:11;8.10;99.90
15239;DHT22;7722;53.274;9.500;2022-11-15T05:06:50;8.10;99.90
15239;DHT22;7722;53.274;9.500;2022-11-15T05:09:18;8.30;99.90
15239;DHT22;7722;53.274;9.500;2022-11-15T05:11:47;8.40;99.90
15239;DHT22;7722;53.274;9.500;2022-11-15T05:14:15;8.40;99.90
15239;DHT22;7722;53.274;9.500;2022-11-15T05:16:42;8.40;99.90
15239;DHT22;7722;53.274;9.500;2022-11-15T05:19:09;8.50;99.90
15239;DHT22;7722;53.274;9.500;2022-11-15T05:21:36;8.60;99.90
15239;DHT22;7722;53.274;9.500;2022-11-15T05:24:04;8.60;99.90
15239;DHT22;7722;53.274;9.500;2022-11-15T05:26:31;8.70;99.90
15239;DHT22;7722;53.274;9.500;2022-11-15T05:29:00;8.80;99.90
15239;DHT22;7722;53.274;9.500;2022-11-15T05:31:27;8.80;99.90
15239;DHT22;7722;53.274;9.500;2022-11-15T05:33:56;8.80;99.90
15239;DHT22;7722;53.274;9.500;2022-11-15T05:36:29;8.90;99.90
15239;DHT22;7722;53.274;9.500;2022-11-15T05:38:58;9.00;99.90
15239;DHT22;7722;53.274;9.500;2022-11-15T05:41:29;9.00;99.90
15239;DHT22;7722;53.274;9.500;2022-11-15T05:43:59;9.00;99.90
15239;DHT22;7722;53.274;9.500;2022-11-15T05:46:28;9.10;99.90
15239;DHT22;7722;53.274;9.500;2022-11-15T05:48:56;9.10;99.90
15239;DHT22;7722;53.274;9.500;2022-11-15T05:51:24;9.10;99.90
15239;DHT22;7722;53.274;9.500;2022-11-15T05:53:55;9.20;99.90
15239;DHT22;7722;53.274;9.500;2022-11-15T05:56:23;9.20;99.90
15239;DHT22;7722;53.274;9.500;2022-11-15T05:58:50;9.30;99.90
15239;DHT22;7722;53.274;9.500;2022-11-15T06:01:21;9.30;99.90
15239;DHT22;7722;53.274;9.500;2022-11-15T06:03:48;9.30;99.90
15239;DHT22;7722;53.274;9.500;2022-11-15T06:06:15;9.40;99.90
15239;DHT22;7722;53.274;9.500;2022-11-15T06:08:42;9.40;99.90
15239;DHT22;7722;53.274;9.500;2022-11-15T06:11:09;9.40;99.90
15239;DHT22;7722;53.274;9.500;2022-11-15T06:13:36;9.50;99.90
15239;DHT22;7722;53.274;9.500;2022-11-15T06:16:03;9.50;99.90
15239;DHT22;7722;53.274;9.500;2022-11-15T06:18:34;9.40;99.90
15239;DHT22;7722;53.274;9.500;2022-11-15T06:21:01;9.50;99.90
15239;DHT22;7722;53.274;9.500;2022-11-15T06:23:33;9.50;99.90
15239;DHT22;7722;53.274;9.500;2022-11-15T06:26:02;9.50;99.90
15239;DHT22;7722;53.274;9.500;2022-11-15T06:28:29;9.50;99.90
15239;DHT22;7722;53.274;9.500;2022-11-15T06:31:02;9.60;99.90
15239;DHT22;7722;53.274;9.500;2022-11-15T06:33:30;9.50;99.90
15239;DHT22;7722;53.274;9.500;2022-11-15T06:36:01;9.50;99.90
15239;DHT22;7722;53.274;9.500;2022-11-15T06:38:28;9.50;99.90
15239;DHT22;7722;53.274;9.500;2022-11-15T06:41:01;9.50;99.90
15239;DHT22;7722;53.274;9.500;2022-11-15T06:43:28;9.50;99.90
15239;DHT22;7722;53.274;9.500;2022-11-15T06:45:57;9.50;99.90
15239;DHT22;7722;53.274;9.500;2022-11-15T06:48:24;9.50;99.90
15239;DHT22;7722;53.274;9.500;2022-11-15T06:50:51;9.60;99.90
15239;DHT22;7722;53.274;9.500;2022-11-15T06:53:20;9.60;99.90
15239;DHT22;7722;53.274;9.500;2022-11-15T06:55:47;9.60;99.90
15239;DHT22;7722;53.274;9.500;2022-11-15T06:58:14;9.60;99.90
15239;DHT22;7722;53.274;9.500;2022-11-15T07:00:41;9.60;99.90
15239;DHT22;7722;53.274;9.500;2022-11-15T07:03:09;9.70;99.90
15239;DHT22;7722;53.274;9.500;2022-11-15T07:05:36;9.80;99.90
15239;DHT22;7722;53.274;9.500;2022-11-15T07:08:04;9.80;99.90
15239;DHT22;7722;53.274;9.500;2022-11-15T07:10:33;9.80;99.90
15239;DHT22;7722;53.274;9.500;2022-11-15T07:13:00;9.90;99.90
15239;DHT22;7722;53.274;9.500;2022-11-15T07:15:27;10.00;99.90
15239;DHT22;7722;53.274;9.500;2022-11-15T07:17:54;10.00;99.90
15239;DHT22;7722;53.274;9.500;2022-11-15T07:20:21;10.10;99.90
15239;DHT22;7722;53.274;9.500;2022-11-15T07:22:48;10.10;99.90
15239;DHT22;7722;53.274;9.500;2022-11-15T07:25:16;10.10;99.90
15239;DHT22;7722;53.274;9.500;2022-11-15T07:27:54;10.10;99.90
15239;DHT22;7722;53.274;9.500;2022-11-15T07:30:21;10.20;99.90
15239;DHT22;7722;53.274;9.500;2022-11-15T07:32:52;10.20;99.90
15239;DHT22;7722;53.274;9.500;2022-11-15T07:35:19;10.20;99.90
15239;DHT22;7722;53.274;9.500;2022-11-15T07:37:53;10.30;99.90
15239;DHT22;7722;53.274;9.500;2022-11-15T07:40:21;10.30;99.90
15239;DHT22;7722;53.274;9.500;2022-11-15T07:42:50;10.30;99.90
15239;DHT22;7722;53.274;9.500;2022-11-15T07:45:20;10.40;99.90
15239;DHT22;7722;53.274;9.500;2022-11-15T07:47:47;10.40;99.90
15239;DHT22;7722;53.274;9.500;2022-11-15T07:50:15;10.50;99.90
15239;DHT22;7722;53.274;9.500;2022-11-15T07:52:42;10.50;99.90
15239;DHT22;7722;53.274;9.500;2022-11-15T07:55:09;10.50;99.90
15239;DHT22;7722;53.274;9.500;2022-11-15T07:57:37;10.50;99.90
15239;DHT22;7722;53.274;9.500;2022-11-15T08:00:07;10.50;99.90
15239;DHT22;7722;53.274;9.500;2022-11-15T08:02:34;10.50;99.90
15239;DHT22;7722;53.274;9.500;2022-11-15T08:05:01;10.40;99.90
15239;DHT22;7722;53.274;9.500;2022-11-15T08:07:29;10.30;99.90
15239;DHT22;7722;53.274;9.500;2022-11-15T08:09:57;10.40;99.90
15239;DHT22;7722;53.274;9.500;2022-11-15T08:12:24;10.40;99.90
15239;DHT22;7722;53.274;9.500;2022-11-15T08:14:51;10.30;99.90
15239;DHT22;7722;53.274;9.500;2022-11-15T08:17:19;10.30;99.90
15239;DHT22;7722;53.274;9.500;2022-11-15T08:19:46;10.30;99.90
15239;DHT22;7722;53.274;9.500;2022-11-15T08:22:13;10.30;99.90
15239;DHT22;7722;53.274;9.500;2022-11-15T08:24:40;10.40;99.90
15239;DHT22;7722;53.274;9.500;2022-11-15T08:27:08;10.40;99.90
15239;DHT22;7722;53.274;9.500;2022-11-15T08:29:41;10.50;99.90
15239;DHT22;7722;53.274;9.500;2022-11-15T08:32:08;10.60;99.90
15239;DHT22;7722;53.274;9.500;2022-11-15T08:34:38;10.70;99.90
15239;DHT22;7722;53.274;9.500;2022-11-15T08:37:05;10.80;99.90
15239;DHT22;7722;53.274;9.500;2022-11-15T08:39:32;10.90;99.90
15239;DHT22;7722;53.274;9.500;2022-11-15T08:41:59;10.90;99.90
15239;DHT22;7722;53.274;9.500;2022-11-15T08:44:26;11.00;99.90
15239;DHT22;7722;53.274;9.500;2022-11-15T08:46:53;11.10;99.90
15239;DHT22;7722;53.274;9.500;2022-11-15T08:49:20;11.20;99.90
15239;DHT22;7722;53.274;9.500;2022-11-15T08:51:49;11.30;99.90
15239;DHT22;7722;53.274;9.500;2022-11-15T08:54:16;11.30;99.90
15239;DHT22;7722;53.274;9.500;2022-11-15T08:56:43;11.40;99.90
15239;DHT22;7722;53.274;9.500;2022-11-15T08:59:10;11.50;99.90
15239;DHT22;7722;53.274;9.500;2022-11-15T09:01:37;11.60;99.90
15239;DHT22;7722;53.274;9.500;2022-11-15T09:04:04;11.70;99.90
15239;DHT22;7722;53.274;9.500;2022-11-15T09:06:31;11.80;99.90
15239;DHT22;7722;53.274;9.500;2022-11-15T09:09:00;11.90;99.90
15239;DHT22;7722;53.274;9.500;2022-11-15T09:11:27;11.90;99.90
15239;DHT22;7722;53.274;9.500;2022-11-15T09:13:54;12.10;99.90
15239;DHT22;7722;53.274;9.500;2022-11-15T09:16:21;12.20;99.90
15239;DHT22;7722;53.274;9.500;2022-11-15T09:18:48;12.30;99.90
15239;DHT22;7722;53.274;9.500;2022-11-15T09:21:15;12.40;99.90
15239;DHT22;7722;53.274;9.500;2022-11-15T09:23:42;12.40;99.90
15239;DHT22;7722;53.274;9.500;2022-11-15T09:26:11;12.40;99.90
15239;DHT22;7722;53.274;9.500;2022-11-15T09:28:38;12.40;99.90
15239;DHT22;7722;53.274;9.500;2022-11-15T09:31:08;12.40;99.90
15239;DHT22;7722;53.274;9.500;2022-11-15T09:33:35;12.40;99.90
15239;DHT22;7722;53.274;9.500;2022-11-15T09:36:03;12.40;99.90
15239;DHT22;7722;53.274;9.500;2022-11-15T09:38:31;12.40;99.90
15239;DHT22;7722;53.274;9.500;2022-11-15T09:41:29;12.40;99.90
15239;DHT22;7722;53.274;9.500;2022-11-15T09:44:15;12.50;99.90
15239;DHT22;7722;53.274;9.500;2022-11-15T09:46:54;12.40;99.90
15239;DHT22;7722;53.274;9.500;2022-11-15T09:49:23;12.60;99.90
15239;DHT22;7722;53.274;9.500;2022-11-15T09:51:52;12.70;99.90
15239;DHT22;7722;53.274;9.500;2022-11-15T09:54:26;12.90;99.90
15239;DHT22;7722;53.274;9.500;2022-11-15T09:56:56;13.20;99.90
15239;DHT22;7722;53.274;9.500;2022-11-15T09:59:50;13.30;99.90
15239;DHT22;7722;53.274;9.500;2022-11-15T10:02:31;13.60;99.90
15239;DHT22;7722;53.274;9.500;2022-11-15T10:05:00;13.80;99.90
15239;DHT22;7722;53.274;9.500;2022-11-15T10:07:34;14.00;99.90
15239;DHT22;7722;53.274;9.500;2022-11-15T10:10:12;14.00;99.90
15239;DHT22;7722;53.274;9.500;2022-11-15T10:12:46;14.10;99.90
15239;DHT22;7722;53.274;9.500;2022-11-15T10:15:15;14.20;99.90
15239;DHT22;7722;53.274;9.500;2022-11-15T10:18:09;14.10;99.90
15239;DHT22;7722;53.274;9.500;2022-11-15T10:20:46;14.00;99.90
15239;DHT22;7722;53.274;9.500;2022-11-15T10:23:16;14.00;99.90
15239;DHT22;7722;53.274;9.500;2022-11-15T10:25:44;13.90;99.90
15239;DHT22;7722;53.274;9.500;2022-11-15T10:28:15;13.80;99.90
15239;DHT22;7722;53.274;9.500;2022-11-15T10:30:44;13.70;99.90
15239;DHT22;7722;53.274;9.500;2022-11-15T10:33:18;13.60;99.90
15239;DHT22;7722;53.274;9.500;2022-11-15T10:35:47;13.60;99.90
15239;DHT22;7722;53.274;9.500;2022-11-15T10:38:14;13.40;99.90
15239;DHT22;7722;53.274;9.500;2022-11-15T10:40:42;13.40;99.90
15239;DHT22;7722;53.274;9.500;2022-11-15T10:43:17;13.30;99.90
15239;DHT22;7722;53.274;9.500;2022-11-15T10:45:46;13.30;99.90
15239;DHT22;7722;53.274;9.500;2022-11-15T10:48:25;13.20;99.90
15239;DHT22;7722;53.274;9.500;2022-11-15T10:50:54;13.20;99.90
15239;DHT22;7722;53.274;9.500;2022-11-15T10:53:26;13.20;99.90
15239;DHT22;7722;53.274;9.500;2022-11-15T10:55:56;13.30;99.90
15239;DHT22;7722;53.274;9.500;2022-11-15T10:58:34;13.40;99.90
15239;DHT22;7722;53.274;9.500;2022-11-15T11:01:14;13.60;99.90
15239;DHT22;7722;53.274;9.500;2022-11-15T11:03:43;13.70;99.90
15239;DHT22;7722;53.274;9.500;2022-11-15T11:06:14;13.70;99.90
15239;DHT22;7722;53.274;9.500;2022-11-15T11:08:54;13.90;99.90
15239;DHT22;7722;53.274;9.500;2022-11-15T11:11:21;14.60;99.90
15239;DHT22;7722;53.274;9.500;2022-11-15T11:13:50;15.20;99.90
15239;DHT22;7722;53.274;9.500;2022-11-15T11:16:32;15.40;99.90
15239;DHT22;7722;53.274;9.500;2022-11-15T11:19:08;15.60;99.90
15239;DHT22;7722;53.274;9.500;2022-11-15T11:21:44;16.20;99.90
15239;DHT22;7722;53.274;9.500;2022-11-15T11:24:21;16.50;99.90
15239;DHT22;7722;53.274;9.500;2022-11-15T11:27:04;16.60;99.90
15239;DHT22;7722;53.274;9.500;2022-11-15T11:29:49;16.50;99.90
15239;DHT22;7722;53.274;9.500;2022-11-15T11:32:31;16.50;99.90
15239;DHT22;7722;53.274;9.500;2022-11-15T11:35:08;16.80;99.90
15239;DHT22;7722;53.274;9.500;2022-11-15T11:37:44;16.50;99.90
15239;DHT22;7722;53.274;9.500;2022-11-15T11:40:20;16.40;99.90
15239;DHT22;7722;53.274;9.500;2022-11-15T11:42:53;16.20;99.90
15239;DHT22;7722;53.274;9.500;2022-11-15T11:45:47;16.10;99.90
15239;DHT22;7722;53.274;9.500;2022-11-15T11:48:23;15.90;99.90
15239;DHT22;7722;53.274;9.500;2022-11-15T11:51:03;15.90;99.90
15239;DHT22;7722;53.274;9.500;2022-11-15T11:53:37;15.80;99.90
15239;DHT22;7722;53.274;9.500;2022-11-15T11:56:15;15.60;99.90
15239;DHT22;7722;53.274;9.500;2022-11-15T11:58:44;15.50;99.90
15239;DHT22;7722;53.274;9.500;2022-11-15T12:01:16;15.30;99.90
15239;DHT22;7722;53.274;9.500;2022-11-15T12:03:47;15.30;99.90
15239;DHT22;7722;53.274;9.500;2022-11-15T12:06:22;15.30;99.90
15239;DHT22;7722;53.274;9.500;2022-11-15T12:08:56;15.10;99.90
15239;DHT22;7722;53.274;9.500;2022-11-15T12:11:30;15.10;99.90
15239;DHT22;7722;53.274;9.500;2022-11-15T12:14:02;15.10;99.90
15239;DHT22;7722;53.274;9.500;2022-11-15T12:16:32;15.00;99.90
15239;DHT22;7722;53.274;9.500;2022-11-15T12:19:01;15.00;99.90
15239;DHT22;7722;53.274;9.500;2022-11-15T12:21:36;14.90;99.90
15239;DHT22;7722;53.274;9.500;2022-11-15T12:24:11;14.90;99.90
15239;DHT22;7722;53.274;9.500;2022-11-15T12:26:42;14.80;99.90
15239;DHT22;7722;53.274;9.500;2022-11-15T12:29:18;14.80;99.90
15239;DHT22;7722;53.274;9.500;2022-11-15T12:31:51;14.70;99.90
15239;DHT22;7722;53.274;9.500;2022-11-15T12:34:40;14.80;99.90
15239;DHT22;7722;53.274;9.500;2022-11-15T12:40:36;14.80;99.90
15239;DHT22;7722;53.274;9.500;2022-11-15T12:46:12;15.50;99.90
15239;DHT22;7722;53.274;9.500;2022-11-15T12:48:49;15.50;99.90
15239;DHT22;7722;53.274;9.500;2022-11-15T12:51:19;15.60;99.90
15239;DHT22;7722;53.274;9.500;2022-11-15T12:53:46;15.60;99.90
15239;DHT22;7722;53.274;9.500;2022-11-15T12:56:23;15.80;99.90
15239;DHT22;7722;53.274;9.500;2022-11-15T12:58:53;15.90;99.90
15239;DHT22;7722;53.274;9.500;2022-11-15T13:01:56;15.90;99.90
15239;DHT22;7722;53.274;9.500;2022-11-15T13:04:29;16.10;99.90
15239;DHT22;7722;53.274;9.500;2022-11-15T13:06:59;16.20;99.90
15239;DHT22;7722;53.274;9.500;2022-11-15T13:09:54;16.40;99.90
15239;DHT22;7722;53.274;9.500;2022-11-15T13:12:55;16.50;99.90
15239;DHT22;7722;53.274;9.500;2022-11-15T13:15:56;16.80;99.90
15239;DHT22;7722;53.274;9.500;2022-11-15T13:18:37;17.00;99.90
15239;DHT22;7722;53.274;9.500;2022-11-15T13:21:20;16.90;99.90
15239;DHT22;7722;53.274;9.500;2022-11-15T13:24:09;16.70;99.90
15239;DHT22;7722;53.274;9.500;2022-11-15T13:26:38;16.50;99.90
15239;DHT22;7722;53.274;9.500;2022-11-15T13:29:15;16.60;99.90
15239;DHT22;7722;53.274;9.500;2022-11-15T13:31:43;16.80;99.90
15239;DHT22;7722;53.274;9.500;2022-11-15T13:34:26;16.60;99.90
15239;DHT22;7722;53.274;9.500;2022-11-15T13:36:55;16.40;99.90
15239;DHT22;7722;53.274;9.500;2022-11-15T13:39:27;16.20;99.90
15239;DHT22;7722;53.274;9.500;2022-11-15T13:41:55;16.10;99.90
15239;DHT22;7722;53.274;9.500;2022-11-15T13:44:24;15.90;99.90
15239;DHT22;7722;53.274;9.500;2022-11-15T13:47:02;15.70;99.90
15239;DHT22;7722;53.274;9.500;2022-11-15T13:49:30;15.60;99.90
15239;DHT22;7722;53.274;9.500;2022-11-15T13:52:00;15.60;99.90
15239;DHT22;7722;53.274;9.500;2022-11-15T13:54:32;15.30;99.90
15239;DHT22;7722;53.274;9.500;2022-11-15T13:57:03;15.20;99.90
15239;DHT22;7722;53.274;9.500;2022-11-15T13:59:33;15.10;99.90
15239;DHT22;7722;53.274;9.500;2022-11-15T14:02:11;15.00;99.90
15239;DHT22;7722;53.274;9.500;2022-11-15T14:04:46;14.90;99.90
15239;DHT22;7722;53.274;9.500;2022-11-15T14:07:19;14.80;99.90
15239;DHT22;7722;53.274;9.500;2022-11-15T14:09:46;14.80;99.90
15239;DHT22;7722;53.274;9.500;2022-11-15T14:12:35;14.80;99.90
15239;DHT22;7722;53.274;9.500;2022-11-15T14:15:19;14.80;99.90
15239;DHT22;7722;53.274;9.500;2022-11-15T14:17:51;14.70;99.90
15239;DHT22;7722;53.274;9.500;2022-11-15T14:20:28;14.70;99.90
15239;DHT22;7722;53.274;9.500;2022-11-15T14:22:58;14.60;99.90
15239;DHT22;7722;53.274;9.500;2022-11-15T14:25:27;14.60;99.90
15239;DHT22;7722;53.274;9.500;2022-11-15T14:28:16;14.60;99.90
15239;DHT22;7722;53.274;9.500;2022-11-15T14:30:56;14.60;99.90
15239;DHT22;7722;53.274;9.500;2022-11-15T14:33:25;14.50;99.90
15239;DHT22;7722;53.274;9.500;2022-11-15T14:35:55;14.50;99.90
15239;DHT22;7722;53.274;9.500;2022-11-15T14:38:24;14.50;99.90
15239;DHT22;7722;53.274;9.500;2022-11-15T14:40:52;14.40;99.90
15239;DHT22;7722;53.274;9.500;2022-11-15T14:43:21;14.40;99.90
15239;DHT22;7722;53.274;9.500;2022-11-15T14:45:48;14.30;99.90
15239;DHT22;7722;53.274;9.500;2022-11-15T14:48:15;14.20;99.90
15239;DHT22;7722;53.274;9.500;2022-11-15T14:50:43;14.20;99.90
15239;DHT22;7722;53.274;9.500;2022-11-15T14:53:12;14.00;99.90
15239;DHT22;7722;53.274;9.500;2022-11-15T14:55:41;13.90;99.90
15239;DHT22;7722;53.274;9.500;2022-11-15T14:58:09;13.80;99.90
15239;DHT22;7722;53.274;9.500;2022-11-15T15:00:38;13.80;99.90
15239;DHT22;7722;53.274;9.500;2022-11-15T15:03:06;13.80;99.90
15239;DHT22;7722;53.274;9.500;2022-11-15T15:05:35;13.60;99.90
15239;DHT22;7722;53.274;9.500;2022-11-15T15:08:03;13.50;99.90
15239;DHT22;7722;53.274;9.500;2022-11-15T15:10:32;13.40;99.90
15239;DHT22;7722;53.274;9.500;2022-11-15T15:13:01;13.30;99.90
15239;DHT22;7722;53.274;9.500;2022-11-15T15:15:33;13.10;99.90
15239;DHT22;7722;53.274;9.500;2022-11-15T15:18:00;13.00;99.90
15239;DHT22;7722;53.274;9.500;2022-11-15T15:20:27;12.90;99.90
15239;DHT22;7722;53.274;9.500;2022-11-15T15:22:54;12.80;99.90
15239;DHT22;7722;53.274;9.500;2022-11-15T15:25:23;12.80;99.90
15239;DHT22;7722;53.274;9.500;2022-11-15T15:27:52;12.70;99.90
15239;DHT22;7722;53.274;9.500;2022-11-15T15:30:21;12.60;99.90
15239;DHT22;7722;53.274;9.500;2022-11-15T15:32:49;12.60;99.90
15239;DHT22;7722;53.274;9.500;2022-11-15T15:35:17;12.60;99.90
15239;DHT22;7722;53.274;9.500;2022-11-15T15:37:45;12.60;99.90
15239;DHT22;7722;53.274;9.500;2022-11-15T15:40:15;12.50;99.90
15239;DHT22;7722;53.274;9.500;2022-11-15T15:42:42;12.50;99.90
15239;DHT22;7722;53.274;9.500;2022-11-15T15:45:10;12.40;99.90
15239;DHT22;7722;53.274;9.500;2022-11-15T15:47:39;12.30;99.90
15239;DHT22;7722;53.274;9.500;2022-11-15T15:50:20;12.20;99.90
15239;DHT22;7722;53.274;9.500;2022-11-15T15:52:47;12.20;99.90
15239;DHT22;7722;53.274;9.500;2022-11-15T15:55:15;12.10;99.90
15239;DHT22;7722;53.274;9.500;2022-11-15T15:57:42;12.00;99.90
15239;DHT22;7722;53.274;9.500;2022-11-15T16:00:10;11.90;99.90
15239;DHT22;7722;53.274;9.500;2022-11-15T16:02:38;11.90;99.90
15239;DHT22;7722;53.274;9.500;2022-11-15T16:05:06;11.90;99.90
15239;DHT22;7722;53.274;9.500;2022-11-15T16:07:33;11.90;99.90
15239;DHT22;7722;53.274;9.500;2022-11-15T16:10:00;11.80;99.90
15239;DHT22;7722;53.274;9.500;2022-11-15T16:12:28;11.90;99.90
15239;DHT22;7722;53.274;9.500;2022-11-15T16:14:55;11.90;99.90
15239;DHT22;7722;53.274;9.500;2022-11-15T16:17:24;11.90;99.90
15239;DHT22;7722;53.274;9.500;2022-11-15T16:19:53;11.80;99.90
15239;DHT22;7722;53.274;9.500;2022-11-15T16:22:20;11.80;99.90
15239;DHT22;7722;53.274;9.500;2022-11-15T16:24:47;11.70;99.90
15239;DHT22;7722;53.274;9.500;2022-11-15T16:27:15;11.50;99.90